Time;durP1;ratioP1;P1;durP2;ratioP2;P2;SDS_P1;SDS_P2;PMS_P1;PMS_P2;Temp;Humidity;BMP_temperature;BMP_pressure;BME280_temperature;BME280_humidity;BME280_pressure;Samples;Min_cycle;Max_cycle;Signal;HPM_P1;HPM_P2
2022/08/15 00:00:27;;;;;;;8.15;4.40;;;;;;;28.25;35.58;100173.97;5032573;28;20046;-63
2022/08/15 00:02:57;;;;;;;12.48;5.57;;;;;;;28.24;35.76;100175.94;5031894;28;20050;-63
2022/08/15 00:05:31;;;;;;;6.07;4.60;;;;;;;28.20;36.16;100170.28;5034317;28;20042;-63
2022/08/15 00:08:06;;;;;;;5.45;4.75;;;;;;;28.23;36.16;100168.00;5051949;28;20064;-63
2022/08/15 00:10:57;;;;;;;6.07;4.80;;;;;;;28.21;36.00;100176.59;5051607;28;20057;-63
2022/08/15 00:13:47;;;;;;;5.53;4.70;;;;;;;28.19;36.22;100176.97;5048521;28;20045;-60
2022/08/15 00:16:29;;;;;;;8.15;5.00;;;;;;;28.18;36.48;100197.47;5048162;28;20472;-63
2022/08/15 00:19:00;;;;;;;6.00;4.93;;;;;;;28.16;36.40;100188.72;5048836;28;20064;-63
2022/08/15 00:21:28;;;;;;;5.32;4.82;;;;;;;28.15;35.84;100186.31;5048587;28;20072;-63
2022/08/15 00:23:57;;;;;;;5.38;4.32;;;;;;;28.12;36.14;100178.75;5030150;28;20076;-63
2022/08/15 00:26:26;;;;;;;5.65;4.55;;;;;;;28.10;36.13;100175.53;5027936;28;20438;-63
2022/08/15 00:29:14;;;;;;;5.15;4.07;;;;;;;28.07;36.26;100181.78;5028672;28;20053;-63
2022/08/15 00:31:42;;;;;;;6.32;4.75;;;;;;;28.04;36.54;100188.00;5028738;28;20113;-63
2022/08/15 00:34:14;;;;;;;5.50;4.70;;;;;;;28.00;36.72;100187.91;5028696;28;20049;-63
2022/08/15 00:37:03;;;;;;;6.13;4.45;;;;;;;27.98;36.78;100187.47;5031716;28;20041;-63
2022/08/15 00:39:36;;;;;;;5.28;4.47;;;;;;;27.97;36.48;100193.34;5048664;28;20132;-63
2022/08/15 00:42:09;;;;;;;6.00;4.25;;;;;;;27.95;36.92;100195.66;5046833;28;20061;-63
2022/08/15 00:44:44;;;;;;;5.57;4.72;;;;;;;27.94;36.45;100202.34;5038150;28;20050;-63
2022/08/15 00:47:27;;;;;;;;;;;;;;;27.93;36.51;100207.06;5028350;28;20053;-63
2022/08/15 00:50:07;;;;;;;5.95;4.97;;;;;;;27.92;36.50;100193.59;5028387;28;19921;-63
2022/08/15 00:52:54;;;;;;;5.72;4.57;;;;;;;27.88;36.44;100202.59;5028496;28;20124;-63
2022/08/15 00:55:22;;;;;;;6.95;4.80;;;;;;;27.87;36.87;100206.53;5027989;28;20050;-63
2022/08/15 00:57:55;;;;;;;6.35;4.68;;;;;;;27.86;36.75;100202.16;5027818;28;20050;-63
2022/08/15 01:00:30;;;;;;;4.78;4.28;;;;;;;27.84;36.56;100203.66;5044715;28;20081;-63
2022/08/15 01:03:05;;;;;;;7.28;4.70;;;;;;;27.83;36.30;100204.81;5047678;28;20115;-63
2022/08/15 01:05:42;;;;;;;6.20;4.50;;;;;;;27.80;36.58;100198.03;5047786;28;20045;-63
2022/08/15 01:08:16;;;;;;;5.75;4.00;;;;;;;27.78;36.40;100203.13;5041270;28;20049;-63
2022/08/15 01:10:47;;;;;;;7.65;4.32;;;;;;;27.75;36.22;100201.06;5027861;28;20053;-63
2022/08/15 01:13:33;;;;;;;9.45;4.15;;;;;;;27.72;36.43;100199.03;5036630;28;20084;-63
2022/08/15 01:16:22;;;;;;;9.93;4.47;;;;;;;27.69;36.13;100201.69;5047161;28;20048;-63
2022/08/15 01:19:05;;;;;;;7.13;4.28;;;;;;;27.66;36.35;100200.44;5047578;28;20045;-63
2022/08/15 01:21:54;;;;;;;5.97;3.88;;;;;;;27.64;36.45;100196.44;5039890;28;20056;-63
2022/08/15 01:24:47;;;;;;;6.05;3.90;;;;;;;27.62;36.33;100199.53;5027300;28;20073;-63
2022/08/15 01:27:41;;;;;;;7.43;4.15;;;;;;;27.58;36.04;100192.28;5027215;28;20045;-63
2022/08/15 01:30:12;;;;;;;5.53;3.75;;;;;;;27.54;36.19;100194.94;5027636;28;20054;-63
2022/08/15 01:33:00;;;;;;;5.18;3.63;;;;;;;27.53;36.13;100199.66;5027388;28;20064;-63
2022/08/15 01:35:29;;;;;;;5.88;3.92;;;;;;;27.51;36.06;100201.97;5042990;28;20050;-63
2022/08/15 01:37:59;;;;;;;6.75;3.40;;;;;;;27.44;35.87;100201.78;5047294;28;20132;-62
2022/08/15 01:40:43;;;;;;;5.55;3.85;;;;;;;27.46;36.04;100210.50;5027851;28;20050;-63
2022/08/15 01:43:26;;;;;;;4.65;3.58;;;;;;;27.44;36.18;100206.50;5026989;28;20056;-63
2022/08/15 01:45:58;;;;;;;7.32;3.47;;;;;;;27.42;35.89;100209.59;5027132;28;20062;-63
2022/08/15 01:48:31;;;;;;;5.05;3.60;;;;;;;27.39;36.17;100199.25;5036487;28;20072;-63
2022/08/15 01:51:10;;;;;;;7.22;3.60;;;;;;;27.39;36.06;100201.22;5046972;28;20468;-62
2022/08/15 01:53:43;;;;;;;13.20;4.55;;;;;;;27.37;36.01;100209.03;5042220;28;20045;-63
2022/08/15 01:56:18;;;;;;;6.22;3.50;;;;;;;27.34;35.83;100206.97;5026584;28;20050;-63
2022/08/15 01:59:02;;;;;;;4.28;3.13;;;;;;;27.31;35.87;100200.22;5027132;28;20084;-63
2022/08/15 02:01:41;;;;;;;5.20;3.05;;;;;;;27.30;35.89;100195.03;5026898;28;20077;-63
2022/08/15 02:04:16;;;;;;;6.47;3.05;;;;;;;27.29;35.82;100196.19;5040785;28;20053;-63
2022/08/15 02:06:52;;;;;;;6.38;3.10;;;;;;;27.29;36.04;100201.72;5046446;28;20041;-63
2022/08/15 02:09:24;;;;;;;8.48;3.20;;;;;;;27.26;35.93;100194.94;5046753;28;20056;-63
2022/08/15 02:12:16;;;;;;;5.10;3.28;;;;;;;27.24;35.76;100191.72;5031526;28;20046;-63
2022/08/15 02:15:09;;;;;;;4.78;2.67;;;;;;;27.23;35.51;100195.63;5026805;28;20053;-63
2022/08/15 02:17:38;;;;;;;4.00;2.90;;;;;;;27.21;35.88;100193.22;5026471;28;20046;-63
2022/08/15 02:20:09;;;;;;;4.53;3.00;;;;;;;27.19;35.54;100192.78;5026899;28;20046;-63
2022/08/15 02:22:51;;;;;;;7.15;3.20;;;;;;;27.17;35.60;100192.31;5026947;28;20058;-63
2022/08/15 02:25:19;;;;;;;7.82;2.63;;;;;;;27.15;35.55;100186.34;5026811;28;20049;-63
2022/08/15 02:27:53;;;;;;;5.97;2.97;;;;;;;27.14;35.49;100193.00;5026299;28;20049;-63
2022/08/15 02:30:24;;;;;;;4.82;3.40;;;;;;;27.13;35.71;100202.44;5026648;28;20137;-63
2022/08/15 02:32:58;;;;;;;3.35;2.63;;;;;;;27.11;35.39;100198.44;5026708;28;20060;-63
2022/08/15 02:35:26;;;;;;;6.15;3.30;;;;;;;27.10;35.35;100205.91;5026507;28;20061;-63
2022/08/15 02:37:58;;;;;;;5.82;2.83;;;;;;;27.08;35.70;100191.66;5025577;28;20121;-63
2022/08/15 02:40:27;;;;;;;4.93;3.40;;;;;;;27.07;35.60;100194.75;5026663;28;20053;-63
2022/08/15 02:43:18;;;;;;;4.43;2.80;;;;;;;27.05;35.48;100192.34;5026193;28;20050;-63
2022/08/15 02:45:48;;;;;;;6.93;3.03;;;;;;;27.02;35.46;100195.81;5026535;28;20050;-63
2022/08/15 02:48:36;;;;;;;4.82;3.40;;;;;;;27.03;35.58;100199.38;5025993;28;20068;-63
2022/08/15 02:51:07;;;;;;;5.45;3.00;;;;;;;27.00;35.60;100194.53;5026156;28;20046;-63
2022/08/15 02:53:38;;;;;;;4.00;2.40;;;;;;;26.95;35.28;100187.28;5026329;28;20141;-63
2022/08/15 02:56:14;;;;;;;4.80;2.90;;;;;;;26.98;35.69;100194.09;5043618;28;20056;-63
2022/08/15 02:58:45;;;;;;;4.82;2.90;;;;;;;26.97;35.26;100200.75;5045796;28;20080;-63
2022/08/15 03:01:14;;;;;;;3.08;2.50;;;;;;;26.95;35.53;100201.06;5045785;28;20487;-63
2022/08/15 03:03:46;;;;;;;4.95;2.78;;;;;;;26.94;35.63;100207.72;5029481;28;20058;-63
2022/08/15 03:06:16;;;;;;;4.80;2.88;;;;;;;26.92;35.46;100208.09;5026137;28;20057;-63
2022/08/15 03:09:00;;;;;;;7.10;3.03;;;;;;;26.89;35.52;100213.50;5026117;28;20076;-63
2022/08/15 03:11:30;;;;;;;3.78;2.30;;;;;;;26.87;35.64;100207.50;5025640;28;20077;-63
2022/08/15 03:14:22;;;;;;;3.78;2.47;;;;;;;26.86;35.76;100200.38;5026122;28;20438;-63
2022/08/15 03:17:02;;;;;;;3.08;2.40;;;;;;;26.82;35.56;100203.03;5025913;28;20045;-63
2022/08/15 03:19:36;;;;;;;3.38;2.47;;;;;;;26.79;35.66;100195.47;5026174;28;20132;-63
2022/08/15 03:22:07;;;;;;;5.43;2.75;;;;;;;26.77;35.67;100197.75;5026120;28;20089;-63
2022/08/15 03:24:35;;;;;;;3.88;2.63;;;;;;;26.76;35.73;100192.59;5035906;28;20057;-63
2022/08/15 03:27:04;;;;;;;4.72;2.50;;;;;;;26.74;35.77;100206.72;5045207;28;20045;-63
2022/08/15 03:29:33;;;;;;;5.85;3.20;;;;;;;26.72;35.75;100199.94;5045717;28;20069;-63
2022/08/15 03:32:17;;;;;;;4.88;2.53;;;;;;;26.69;35.77;100206.16;5044586;28;20057;-62
2022/08/15 03:35:01;;;;;;;3.35;2.60;;;;;;;26.67;35.72;100220.28;5045758;28;20469;-63
2022/08/15 03:37:29;;;;;;;4.38;2.63;;;;;;;26.67;35.77;100227.75;5045184;28;20059;-63
2022/08/15 03:39:57;;;;;;;5.80;2.50;;;;;;;26.63;35.80;100219.38;5044609;28;20050;-63
2022/08/15 03:42:27;;;;;;;7.78;2.90;;;;;;;26.63;35.90;100221.31;5044200;28;20338;-63
2022/08/15 03:45:10;;;;;;;6.22;3.75;;;;;;;26.58;36.05;100225.91;5045677;28;20057;-63
2022/08/15 03:47:40;;;;;;;4.40;2.42;;;;;;;26.59;35.95;100226.72;5045114;28;20076;-63
2022/08/15 03:50:09;;;;;;;4.63;3.00;;;;;;;26.56;36.00;100217.19;5048473;28;20083;-63
2022/08/15 03:52:54;;;;;;;5.15;2.40;;;;;;;26.53;36.11;100214.31;5034281;28;20054;-63
2022/08/15 03:55:25;;;;;;;4.10;2.67;;;;;;;26.52;36.20;100219.00;5029378;28;20049;-63
2022/08/15 03:57:55;;;;;;;6.80;2.67;;;;;;;26.50;36.17;100215.81;5029010;28;20048;-63
2022/08/15 04:00:33;;;;;;;;;;;;;;;26.47;36.18;100210.97;5029846;28;20054;-63
2022/08/15 04:03:06;;;;;;;5.65;2.83;;;;;;;26.47;36.25;100199.16;5047603;28;21138;-63
2022/08/15 04:05:34;;;;;;;4.75;2.97;;;;;;;26.45;36.40;100209.72;5049023;28;20060;-63
2022/08/15 04:08:09;;;;;;;4.47;2.92;;;;;;;26.45;36.36;100209.72;5048679;28;20049;-63
2022/08/15 04:11:00;;;;;;;3.83;2.58;;;;;;;26.45;36.45;100201.44;5037665;28;20041;-63
2022/08/15 04:13:30;;;;;;;8.23;2.75;;;;;;;26.44;36.55;100206.16;5028693;28;20527;-63
2022/08/15 04:16:02;;;;;;;3.15;2.40;;;;;;;26.43;36.63;100203.75;5028735;28;20085;-63
2022/08/15 04:18:50;;;;;;;6.38;2.53;;;;;;;26.41;36.48;100201.34;5028835;28;20042;-63
2022/08/15 04:21:26;;;;;;;3.88;2.35;;;;;;;26.38;36.70;100213.03;5029104;28;20561;-63
2022/08/15 04:23:54;;;;;;;4.75;2.80;;;;;;;26.38;36.77;100215.00;5028143;28;20046;-63
2022/08/15 04:26:21;;;;;;;4.53;2.63;;;;;;;26.37;36.87;100210.63;5028095;28;20050;-62
2022/08/15 04:28:55;;;;;;;4.07;2.60;;;;;;;26.37;37.18;100216.13;5028984;28;20045;-63
2022/08/15 04:31:26;;;;;;;5.43;2.90;;;;;;;26.35;37.00;100216.47;5028378;28;20056;-62
2022/08/15 04:34:00;;;;;;;3.90;2.40;;;;;;;26.33;36.94;100210.50;5028298;28;20050;-62
2022/08/15 04:36:48;;;;;;;5.55;3.15;;;;;;;26.31;37.12;100212.78;5028728;28;20080;-62
2022/08/15 04:39:17;;;;;;;4.22;2.50;;;;;;;26.28;37.19;100206.00;5028418;28;20076;-63
2022/08/15 04:41:45;;;;;;;8.30;3.22;;;;;;;26.30;37.18;100210.34;5028183;28;20049;-62
2022/08/15 04:44:18;;;;;;;5.65;2.70;;;;;;;26.27;37.00;100215.41;5028659;28;20054;-62
2022/08/15 04:46:57;;;;;;;4.72;2.40;;;;;;;26.24;37.40;100215.28;5028049;28;20077;-62
2022/08/15 04:49:24;;;;;;;4.38;2.55;;;;;;;26.23;37.47;100221.94;5027746;28;20069;-63
2022/08/15 04:51:52;;;;;;;3.85;2.75;;;;;;;26.22;37.51;100215.63;5028410;28;20081;-62
2022/08/15 04:54:20;;;;;;;3.45;2.65;;;;;;;26.20;37.60;100217.13;5028226;28;20090;-63
2022/08/15 04:56:47;;;;;;;2.95;2.28;;;;;;;26.18;37.56;100214.69;5027909;28;20056;-63
2022/08/15 04:59:18;;;;;;;3.60;2.50;;;;;;;26.17;37.67;100223.31;5028079;28;20052;-63
2022/08/15 05:02:06;;;;;;;5.95;2.67;;;;;;;26.17;37.69;100228.81;5028168;28;20077;-63
2022/08/15 05:04:54;;;;;;;4.45;2.58;;;;;;;26.15;37.78;100231.09;5027829;28;20484;-62
2022/08/15 05:07:23;;;;;;;3.95;2.38;;;;;;;26.14;37.95;100224.78;5028077;28;20050;-63
2022/08/15 05:09:54;;;;;;;4.25;2.30;;;;;;;26.12;37.90;100229.84;5027863;28;20042;-63
2022/08/15 05:12:31;;;;;;;6.10;2.40;;;;;;;26.11;38.01;100236.50;5027568;28;20070;-62
2022/08/15 05:15:01;;;;;;;2.90;2.15;;;;;;;26.10;37.81;100236.84;5029486;28;20699;-62
2022/08/15 05:17:30;;;;;;;3.60;2.47;;;;;;;26.08;37.95;100241.88;5047079;28;20046;-62
2022/08/15 05:20:21;;;;;;;4.45;2.22;;;;;;;26.07;38.06;100243.84;5047661;28;20056;-63
2022/08/15 05:22:59;;;;;;;6.45;2.47;;;;;;;26.05;38.25;100248.06;5029028;28;20496;-63
2022/08/15 05:25:31;;;;;;;4.78;2.60;;;;;;;26.04;38.49;100247.25;5027563;28;20518;-63
2022/08/15 05:27:59;;;;;;;4.25;2.58;;;;;;;26.02;38.48;100249.56;5027210;28;20132;-62
2022/08/15 05:30:48;;;;;;;4.10;2.72;;;;;;;26.00;38.42;100256.56;5027591;28;20105;-63
2022/08/15 05:33:29;;;;;;;4.72;2.70;;;;;;;25.99;38.34;100249.47;5027473;28;20065;-62
2022/08/15 05:36:17;;;;;;;4.00;2.38;;;;;;;25.99;38.51;100254.97;5027297;28;20125;-63
2022/08/15 05:38:58;;;;;;;3.80;2.70;;;;;;;25.98;38.54;100258.88;5027230;28;20050;-63
2022/08/15 05:41:31;;;;;;;4.10;2.47;;;;;;;25.93;38.46;100254.38;5027242;28;20054;-63
2022/08/15 05:44:03;;;;;;;2.90;2.13;;;;;;;25.94;38.68;100253.22;5027053;28;20076;-62
2022/08/15 05:46:56;;;;;;;4.43;2.38;;;;;;;25.92;38.65;100253.56;5027194;28;20050;-63
2022/08/15 05:49:34;;;;;;;3.20;1.90;;;;;;;25.90;38.73;100249.53;5027329;28;20080;-63
2022/08/15 05:52:17;;;;;;;4.88;2.30;;;;;;;25.87;38.82;100256.53;5027200;28;20053;-62
2022/08/15 05:55:06;;;;;;;5.97;3.00;;;;;;;25.87;38.82;100264.00;5038984;28;20049;-62
2022/08/15 05:57:42;;;;;;;5.05;3.13;;;;;;;25.84;39.03;100254.47;5046459;28;20061;-63
2022/08/15 06:00:15;;;;;;;3.88;2.63;;;;;;;25.84;39.06;100259.16;5046862;28;20076;-64
2022/08/15 06:02:46;;;;;;;4.55;2.90;;;;;;;25.85;39.10;100266.28;5046565;28;20055;-63
2022/08/15 06:05:29;;;;;;;6.28;2.55;;;;;;;25.86;39.15;100265.13;5027180;28;20504;-63
2022/08/15 06:08:08;;;;;;;4.43;2.60;;;;;;;25.85;38.95;100264.31;5026651;28;20081;-62
2022/08/15 06:11:10;;;;;;;5.05;2.45;;;;;;;25.87;39.11;100264.78;5026616;28;20058;-63
2022/08/15 06:13:44;;;;;;;4.68;2.25;;;;;;;25.86;39.27;100265.13;5032783;28;20063;-63
2022/08/15 06:16:16;;;;;;;7.97;2.78;;;;;;;25.84;39.09;100268.22;5046352;28;20060;-63
2022/08/15 06:19:07;;;;;;;8.25;2.40;;;;;;;25.83;39.65;100272.13;5046289;28;20064;-63
2022/08/15 06:21:45;;;;;;;6.55;2.95;;;;;;;25.82;39.18;100281.53;5046162;28;20503;-63
2022/08/15 06:24:21;;;;;;;4.28;2.70;;;;;;;25.83;39.68;100274.06;5030890;28;20049;-61
2022/08/15 06:27:00;;;;;;;5.13;2.75;;;;;;;25.82;39.88;100264.19;5026227;28;20104;-65
2022/08/15 06:29:54;;;;;;;3.67;2.30;;;;;;;25.81;39.79;100276.34;5026507;28;20050;-62
2022/08/15 06:32:29;;;;;;;5.82;2.95;;;;;;;25.79;39.79;100275.88;5024345;28;20054;-62
2022/08/15 06:35:05;;;;;;;4.63;2.75;;;;;;;25.79;40.11;100282.19;5026886;28;20077;-63
2022/08/15 06:37:46;;;;;;;4.45;2.25;;;;;;;25.78;39.99;100282.53;5026207;28;20052;-62
2022/08/15 06:40:42;;;;;;;4.63;2.40;;;;;;;25.76;40.12;100269.09;5026172;28;20046;-62
2022/08/15 06:43:12;;;;;;;3.17;2.25;;;;;;;25.77;40.08;100284.47;5025994;28;20061;-62
2022/08/15 06:45:44;;;;;;;5.95;2.45;;;;;;;25.77;40.03;100286.44;5026358;28;20065;-62
2022/08/15 06:48:20;;;;;;;3.03;2.22;;;;;;;25.77;39.98;100286.44;5025857;28;20076;-62
2022/08/15 06:51:10;;;;;;;4.35;2.42;;;;;;;25.75;39.81;100283.22;5045448;28;20053;-62
2022/08/15 06:53:44;;;;;;;3.67;2.70;;;;;;;25.76;40.03;100279.31;5043403;28;20050;-62
2022/08/15 06:56:22;;;;;;;4.60;3.08;;;;;;;25.74;40.07;100287.91;5025952;28;20046;-62
2022/08/15 06:59:01;;;;;;;4.10;2.67;;;;;;;25.73;40.18;100280.00;5025937;28;20150;-61
2022/08/15 07:01:45;;;;;;;4.05;2.47;;;;;;;25.72;40.13;100281.94;5026240;28;20050;-61
2022/08/15 07:04:46;;;;;;;3.28;2.17;;;;;;;25.71;40.31;100277.56;5025934;28;20061;-62
2022/08/15 07:07:19;;;;;;;5.95;2.47;;;;;;;25.69;40.37;100268.03;5025952;28;20081;-62
2022/08/15 07:09:56;;;;;;;3.83;2.13;;;;;;;25.70;40.41;100267.72;5034852;28;20105;-62
2022/08/15 07:12:27;;;;;;;;;;;;;;;25.70;40.17;100267.72;5045808;28;20068;-62
2022/08/15 07:15:09;;;;;;;3.70;2.45;;;;;;;25.71;40.42;100263.00;5045933;28;19993;-61
2022/08/15 07:17:42;;;;;;;5.47;2.35;;;;;;;25.70;40.31;100258.66;5025947;28;20054;-61
2022/08/15 07:20:12;;;;;;;4.65;2.42;;;;;;;25.70;40.24;100262.19;5026024;28;20046;-62
2022/08/15 07:23:00;;;;;;;5.15;2.83;;;;;;;25.70;40.61;100259.44;5026990;28;20046;-62
2022/08/15 07:25:32;;;;;;;3.45;2.30;;;;;;;25.68;40.84;100256.22;5030070;28;20041;-62
2022/08/15 07:28:05;;;;;;;5.80;2.55;;;;;;;25.69;41.08;100254.28;5029382;28;20049;-62
2022/08/15 07:30:45;;;;;;;8.07;2.70;;;;;;;25.68;40.92;100258.97;5029757;28;20076;-62
2022/08/15 07:33:30;;;;;;;4.22;2.58;;;;;;;25.67;41.04;100262.06;5029767;28;20096;-62
2022/08/15 07:36:18;;;;;;;4.25;2.60;;;;;;;25.68;40.87;100258.19;5029667;28;20062;-62
2022/08/15 07:39:19;;;;;;;4.28;2.40;;;;;;;25.67;41.25;100257.38;5045499;28;20056;-62
2022/08/15 07:42:11;;;;;;;5.75;3.00;;;;;;;25.68;41.38;100258.97;5049121;28;20053;-62
2022/08/15 07:45:01;;;;;;;5.53;2.45;;;;;;;25.68;41.33;100258.97;5044632;28;20117;-62
2022/08/15 07:47:34;;;;;;;7.35;2.50;;;;;;;25.69;41.54;100262.53;5028991;28;20050;-62
2022/08/15 07:50:28;;;;;;;4.68;2.83;;;;;;;25.74;41.62;100267.84;5029928;28;20056;-62
2022/08/15 07:53:11;;;;;;;5.75;2.60;;;;;;;25.74;41.52;100265.09;5029538;28;20045;-62
2022/08/15 07:56:04;;;;;;;3.85;2.17;;;;;;;25.75;41.42;100277.69;5029371;28;20049;-62
2022/08/15 07:58:57;;;;;;;4.63;2.20;;;;;;;25.76;41.74;100269.09;5029001;28;20065;-61
2022/08/15 08:01:30;;;;;;;5.43;2.50;;;;;;;25.77;41.78;100273.47;5029432;28;20050;-62
2022/08/15 08:04:06;;;;;;;4.10;2.95;;;;;;;25.78;41.82;100277.84;5029045;28;20058;-61
2022/08/15 08:06:55;;;;;;;5.57;2.53;;;;;;;25.76;41.91;100277.38;5028923;28;20050;-61
2022/08/15 08:09:30;;;;;;;6.15;2.97;;;;;;;25.79;41.80;100273.13;5029146;28;20104;-62
2022/08/15 08:12:10;;;;;;;6.60;2.80;;;;;;;25.79;41.87;100276.69;5046660;28;20491;-61
2022/08/15 08:14:50;;;;;;;5.07;2.95;;;;;;;25.81;42.00;100285.41;5048898;28;20045;-61
2022/08/15 08:17:28;;;;;;;6.15;2.53;;;;;;;25.83;41.92;100290.59;5048246;28;20049;-62
2022/08/15 08:20:21;;;;;;;5.00;2.92;;;;;;;25.81;41.88;100279.09;5048774;28;20057;-62
2022/08/15 08:22:55;;;;;;;9.07;2.70;;;;;;;25.83;42.02;100291.38;5048810;28;20049;-62
2022/08/15 08:25:28;;;;;;;3.72;2.45;;;;;;;25.82;42.37;100291.72;5048600;28;20053;-62
2022/08/15 08:28:28;;;;;;;4.82;2.83;;;;;;;25.81;42.30;100299.19;5030558;28;20054;-62
2022/08/15 08:31:10;;;;;;;4.40;2.63;;;;;;;25.83;42.22;100296.09;5028625;28;20551;-62
2022/08/15 08:33:46;;;;;;;5.13;2.55;;;;;;;25.83;42.20;100293.34;5029142;28;20054;-62
2022/08/15 08:36:20;;;;;;;;;;;;;;;25.83;42.19;100294.16;5048012;28;20045;-62
2022/08/15 08:39:15;;;;;;;3.35;2.33;;;;;;;25.85;42.18;100302.88;5033977;28;19937;-61
2022/08/15 08:41:56;;;;;;;4.03;2.33;;;;;;;25.85;42.45;100296.56;5028033;28;20499;-63
2022/08/15 08:44:37;;;;;;;5.47;3.10;;;;;;;25.84;42.19;100290.25;5038603;28;20057;-62
2022/08/15 08:47:22;;;;;;;4.63;2.75;;;;;;;25.84;42.53;100286.69;5047903;28;20084;-62
2022/08/15 08:50:03;;;;;;;4.57;2.85;;;;;;;25.84;42.70;100293.00;5048146;28;20045;-61
2022/08/15 08:52:59;;;;;;;5.03;2.90;;;;;;;25.83;42.72;100291.38;5047988;28;20513;-62
2022/08/15 08:55:29;;;;;;;10.40;3.30;;;;;;;25.83;42.48;100294.16;5047662;28;20467;-62
2022/08/15 08:58:19;;;;;;;5.10;2.92;;;;;;;25.83;42.47;100296.09;5047558;28;20046;-62
2022/08/15 09:01:07;;;;;;;6.00;2.90;;;;;;;25.83;42.63;100301.59;5047841;28;20109;-62
2022/08/15 09:03:42;;;;;;;5.10;2.90;;;;;;;25.83;42.79;100307.09;5046970;28;20319;-62
2022/08/15 09:06:16;;;;;;;4.82;2.63;;;;;;;25.82;42.88;100303.53;5047699;28;20053;-62
2022/08/15 09:08:58;;;;;;;6.53;3.40;;;;;;;25.81;42.92;100315.69;5037756;28;20065;-61
2022/08/15 09:11:29;;;;;;;6.00;3.40;;;;;;;25.81;43.32;100314.91;5027735;28;20080;-62
2022/08/15 09:14:00;;;;;;;6.22;2.85;;;;;;;25.80;43.20;100319.59;5027388;28;20054;-62
2022/08/15 09:16:34;;;;;;;8.43;2.53;;;;;;;25.80;43.18;100318.78;5027582;28;20054;-62
2022/08/15 09:19:15;;;;;;;7.97;3.08;;;;;;;25.79;43.18;100323.50;5027792;28;20109;-62
2022/08/15 09:21:45;;;;;;;5.15;3.03;;;;;;;25.79;43.10;100318.00;5027554;28;20057;-62
2022/08/15 09:24:14;;;;;;;5.55;3.10;;;;;;;25.78;43.50;100316.38;5027818;28;20053;-61
2022/08/15 09:27:10;;;;;;;5.82;3.47;;;;;;;25.79;43.35;100311.69;5027159;28;20144;-62
2022/08/15 09:29:43;;;;;;;3.95;2.88;;;;;;;25.78;43.65;100316.38;5027291;28;20056;-62
2022/08/15 09:32:41;;;;;;;4.47;2.70;;;;;;;25.79;43.57;100314.44;5034193;28;20076;-63
2022/08/15 09:35:40;;;;;;;6.88;3.22;;;;;;;25.79;43.61;100319.94;5047186;28;20052;-62
2022/08/15 09:38:40;;;;;;;9.05;3.55;;;;;;;25.79;43.72;100314.44;5046903;28;20123;-61
2022/08/15 09:41:22;;;;;;;5.63;3.15;;;;;;;25.78;43.79;100310.88;5028854;28;20120;-61
2022/08/15 09:44:10;;;;;;;7.00;3.35;;;;;;;25.78;43.83;100301.81;5026766;28;20112;-62
2022/08/15 09:47:22;;;;;;;4.70;2.85;;;;;;;25.78;43.65;100313.63;5026650;28;20049;-61
2022/08/15 09:50:20;;;;;;;4.82;2.83;;;;;;;25.80;43.99;100316.84;5027222;28;20058;-62
2022/08/15 09:53:11;;;;;;;5.53;2.65;;;;;;;25.81;43.54;100310.19;5026955;28;20403;-62
2022/08/15 09:55:46;;;;;;;10.30;3.42;;;;;;;25.82;43.66;100303.53;5026815;28;20046;-62
2022/08/15 09:58:24;;;;;;;6.20;3.00;;;;;;;25.83;44.04;100312.63;5026602;28;20136;-62
2022/08/15 10:01:03;;;;;;;4.95;3.15;;;;;;;25.82;43.80;100311.81;5026927;28;20042;-62
2022/08/15 10:03:59;;;;;;;10.32;3.47;;;;;;;25.85;43.90;100315.84;5026495;28;20089;-62
2022/08/15 10:06:31;;;;;;;7.13;3.28;;;;;;;25.85;43.97;100315.84;5017165;28;20065;-62
2022/08/15 10:09:31;;;;;;;4.65;3.10;;;;;;;25.85;44.06;100311.13;5026841;28;20061;-61
2022/08/15 10:12:21;;;;;;;6.75;3.50;;;;;;;25.87;44.03;100316.31;5026386;28;20046;-61
2022/08/15 10:15:01;;;;;;;4.95;3.13;;;;;;;25.87;44.19;100322.63;5026868;28;20080;-62
2022/08/15 10:17:44;;;;;;;5.20;3.33;;;;;;;25.87;44.33;100319.88;5026005;28;20096;-61
2022/08/15 10:20:54;;;;;;;5.15;3.20;;;;;;;25.88;44.22;100315.16;5026730;28;20078;-62
2022/08/15 10:23:29;;;;;;;4.43;3.15;;;;;;;25.89;44.04;100317.56;5026380;28;20077;-62
2022/08/15 10:26:22;;;;;;;6.70;3.33;;;;;;;25.90;44.38;100316.44;5032051;28;20080;-62
2022/08/15 10:29:29;;;;;;;6.35;3.22;;;;;;;25.90;44.30;100319.19;5045746;28;20053;-62
2022/08/15 10:32:03;;;;;;;6.55;3.10;;;;;;;25.91;44.27;100318.03;5045990;28;20088;-62
2022/08/15 10:34:59;;;;;;;6.57;2.80;;;;;;;25.90;44.55;100321.94;5038184;28;20056;-62
2022/08/15 10:37:30;;;;;;;;;;;;;;;25.92;44.57;100324.34;5026589;28;20115;-62
2022/08/15 10:40:28;;;;;;;5.00;3.17;;;;;;;25.92;44.55;100327.91;5026471;28;19925;-62
2022/08/15 10:43:11;;;;;;;5.70;3.15;;;;;;;25.93;44.58;100325.97;5024238;28;20081;-62
2022/08/15 10:45:47;;;;;;;5.07;3.15;;;;;;;25.94;44.57;100328.38;5026316;28;20054;-62
2022/08/15 10:48:37;;;;;;;5.40;3.05;;;;;;;25.96;44.52;100327.25;5025490;28;20113;-62
2022/08/15 10:51:32;;;;;;;6.03;3.28;;;;;;;25.93;45.00;100321.25;5026195;28;20077;-62
2022/08/15 10:54:23;;;;;;;4.88;2.60;;;;;;;25.95;44.63;100320.94;5026249;28;20110;-62
2022/08/15 10:57:07;;;;;;;9.40;3.45;;;;;;;25.94;44.60;100320.13;5025512;28;20049;-62
2022/08/15 10:59:40;;;;;;;5.60;3.13;;;;;;;25.96;44.51;100330.00;5036591;28;20053;-62
2022/08/15 11:02:19;;;;;;;5.72;3.33;;;;;;;25.95;44.80;100320.94;5045537;28;20073;-62
2022/08/15 11:05:09;;;;;;;5.00;3.35;;;;;;;25.94;44.83;100322.88;5032224;28;20092;-61
2022/08/15 11:07:47;;;;;;;6.18;3.50;;;;;;;25.96;44.81;100318.97;5025525;28;20495;-62
2022/08/15 11:10:25;;;;;;;;;;;;;;;25.96;44.70;100322.53;5026413;28;20073;-62
2022/08/15 11:12:57;;;;;;;5.45;3.15;;;;;;;25.96;45.09;100327.25;5025455;28;20410;-61
2022/08/15 11:15:33;;;;;;;7.03;3.75;;;;;;;25.96;45.16;100328.03;5025795;28;20451;-61
2022/08/15 11:18:05;;;;;;;8.27;3.70;;;;;;;25.96;44.85;100318.97;5025413;28;20077;-61
2022/08/15 11:20:52;;;;;;;4.93;2.97;;;;;;;25.95;45.07;100323.69;5025899;28;20070;-61
2022/08/15 11:23:36;;;;;;;5.38;3.35;;;;;;;25.96;44.83;100324.50;5037592;28;20045;-62
2022/08/15 11:26:06;;;;;;;7.35;3.20;;;;;;;25.96;45.25;100321.72;5045544;28;20049;-62
2022/08/15 11:29:14;;;;;;;5.90;3.35;;;;;;;25.94;45.08;100324.81;5045113;28;20115;-62
2022/08/15 11:31:52;;;;;;;4.55;2.95;;;;;;;25.92;45.10;100319.66;5040707;28;20042;-62
2022/08/15 11:34:29;;;;;;;9.13;3.25;;;;;;;25.96;45.05;100327.25;5025752;28;20046;-62
2022/08/15 11:37:12;;;;;;;5.57;3.47;;;;;;;25.97;44.95;100326.91;5025689;28;20071;-62
2022/08/15 11:39:47;;;;;;;8.40;4.18;;;;;;;25.97;44.99;100328.84;5025513;28;20114;-62
2022/08/15 11:42:18;;;;;;;4.90;3.22;;;;;;;25.98;44.73;100328.50;5025464;28;20046;-62
2022/08/15 11:44:56;;;;;;;5.03;3.30;;;;;;;25.99;44.90;100326.56;5025568;28;20054;-62
2022/08/15 11:47:27;;;;;;;5.43;3.45;;;;;;;25.98;45.18;100328.50;5025063;28;20058;-62
2022/08/15 11:50:01;;;;;;;5.97;3.47;;;;;;;25.98;45.11;100328.50;5035513;28;20112;-61
2022/08/15 11:52:32;;;;;;;5.43;3.03;;;;;;;25.99;45.07;100334.81;5045211;28;20061;-61
2022/08/15 11:55:21;;;;;;;6.90;3.55;;;;;;;25.99;45.34;100337.59;5045347;28;20054;-61
2022/08/15 11:57:53;;;;;;;9.40;3.53;;;;;;;26.00;45.05;100337.25;5044790;28;20049;-61
2022/08/15 12:00:28;;;;;;;7.35;3.55;;;;;;;26.01;44.97;100335.25;5025862;28;20046;-61
2022/08/15 12:02:57;;;;;;;7.15;3.10;;;;;;;26.03;44.87;100339.28;5025281;28;20046;-61
2022/08/15 12:05:45;;;;;;;7.22;3.55;;;;;;;26.04;45.08;100338.16;5025164;28;20053;-62
2022/08/15 12:08:34;;;;;;;6.18;2.90;;;;;;;26.06;44.95;100343.31;5041278;28;20060;-62
2022/08/15 12:11:04;;;;;;;6.13;3.28;;;;;;;26.07;44.79;100342.97;5047540;28;20072;-62
2022/08/15 12:13:34;;;;;;;5.88;3.10;;;;;;;26.07;45.13;100342.97;5048374;28;20084;-62
2022/08/15 12:16:05;;;;;;;9.75;3.30;;;;;;;26.08;44.75;100346.53;5046199;28;20462;-61
2022/08/15 12:18:53;;;;;;;4.80;3.42;;;;;;;26.10;44.73;100352.53;5028814;28;20060;-61
2022/08/15 12:21:23;;;;;;;6.90;3.22;;;;;;;26.10;44.75;100347.81;5028606;28;20480;-62